Time;durP1;ratioP1;P1;durP2;ratioP2;P2;SDS_P1;SDS_P2;PMS_P1;PMS_P2;Temp;Humidity;BMP_temperature;BMP_pressure;BME280_temperature;BME280_humidity;BME280_pressure;Samples;Min_cycle;Max_cycle;Signal;HPM_P1;HPM_P2
2020/12/22 00:00:31;;;;;;;0.77;0.35;;;10.50;99.90;;;9.17;100.00;100551.69;4971806;28;20038;-38
2020/12/22 00:02:59;;;;;;;0.88;0.30;;;10.60;99.90;;;9.33;100.00;100539.53;4955711;28;20565;-38
2020/12/22 00:05:26;;;;;;;0.50;0.30;;;10.70;99.90;;;9.46;100.00;100525.91;4939712;28;20058;-38
2020/12/22 00:07:53;;;;;;;1.17;0.37;;;10.90;99.90;;;9.56;100.00;100521.88;4971528;28;20125;-38
2020/12/22 00:10:21;;;;;;;0.50;0.30;;;11.00;99.90;;;9.61;100.00;100520.22;4940145;28;20109;-38
2020/12/22 00:12:48;;;;;;;0.95;0.40;;;11.10;99.90;;;9.69;100.00;100521.88;4955738;28;20070;-38
2020/12/22 00:15:16;;;;;;;0.60;0.30;;;11.20;99.90;;;9.78;100.00;100530.63;4939589;28;20046;-38
2020/12/22 00:17:44;;;;;;;0.75;0.32;;;11.20;99.90;;;10.00;100.00;100516.72;4955950;28;20050;-38
2020/12/22 00:20:13;;;;;;;0.32;0.20;;;11.40;99.90;;;10.06;99.55;100515.84;4939914;28;20085;-38
2020/12/22 00:22:40;;;;;;;0.43;0.20;;;11.50;99.90;;;10.12;98.26;100516.88;4939153;28;20054;-37
2020/12/22 00:25:07;;;;;;;0.90;0.30;;;11.60;99.90;;;10.28;96.42;100520.97;4939702;28;20125;-38
2020/12/22 00:27:38;;;;;;;0.13;0.10;;;11.60;99.90;;;10.31;95.36;100509.63;4971417;28;20053;-38
2020/12/22 00:30:07;;;;;;;1.08;0.20;;;11.70;99.90;;;10.39;95.24;100519.44;4956504;28;20054;-38
2020/12/22 00:32:36;;;;;;;0.30;0.20;;;11.80;99.90;;;10.53;94.26;100510.19;4939665;28;20138;-38
2020/12/22 00:35:05;;;;;;;0.22;0.10;;;11.90;99.90;;;10.60;93.26;100510.97;4971145;28;20361;-38
2020/12/22 00:37:33;;;;;;;0.38;0.10;;;12.00;99.90;;;10.61;93.12;100507.19;4955219;28;20051;-38
2020/12/22 00:40:00;;;;;;;0.30;0.10;;;12.10;99.90;;;10.69;92.51;100511.53;4955528;28;20097;-38
2020/12/22 00:42:36;;;;;;;1.13;0.22;;;12.10;99.90;;;10.73;92.62;100514.63;4955186;28;20663;-38
2020/12/22 00:45:04;;;;;;;0.63;0.20;;;12.20;99.90;;;10.77;92.29;100511.25;4939509;28;20066;-38
2020/12/22 00:47:31;;;;;;;0.20;0.20;;;12.20;99.90;;;10.84;91.79;100516.66;4955314;28;20061;-38
2020/12/22 00:49:59;;;;;;;1.08;0.20;;;12.30;99.90;;;10.86;91.51;100506.38;4939671;28;20455;-38
2020/12/22 00:52:26;;;;;;;0.38;0.25;;;12.30;99.90;;;10.89;91.42;100516.00;4939132;28;20058;-38
2020/12/22 00:54:54;;;;;;;0.20;0.20;;;12.40;99.90;;;10.92;91.23;100519.13;4939638;28;20054;-38
2020/12/22 00:57:22;;;;;;;1.00;0.38;;;12.40;99.90;;;10.99;90.80;100523.69;4924157;28;20042;-38
2020/12/22 01:00:00;;;;;;;0.40;0.30;;;12.40;99.90;;;10.96;90.92;100524.13;4956937;28;20121;-38
2020/12/22 01:02:27;;;;;;;0.60;0.30;;;12.40;99.90;;;10.97;90.66;100526.66;4939165;28;20465;-38
2020/12/22 01:04:54;;;;;;;0.60;0.20;;;12.50;99.90;;;11.02;90.71;100532.28;4939230;28;20131;-38
2020/12/22 01:07:21;;;;;;;0.50;0.30;;;12.50;99.90;;;11.08;90.49;100515.00;4955500;28;20403;-38
2020/12/22 01:09:49;;;;;;;0.53;0.30;;;12.50;99.90;;;11.10;90.35;100508.47;4955354;28;20457;-38
2020/12/22 01:12:16;;;;;;;0.32;0.22;;;12.50;99.90;;;11.12;90.21;100511.81;4954923;28;21011;-38
2020/12/22 01:14:44;;;;;;;0.45;0.20;;;12.60;99.90;;;11.08;90.41;100512.25;4939267;28;20050;-38
2020/12/22 01:17:12;;;;;;;1.77;0.40;;;12.50;99.90;;;11.17;90.27;100503.81;4955301;28;20043;-38
2020/12/22 01:19:39;;;;;;;0.20;0.20;;;12.60;99.90;;;11.24;89.58;100507.31;4940424;28;20117;-38
2020/12/22 01:22:07;;;;;;;0.83;0.20;;;12.60;99.90;;;11.34;89.34;100506.78;4958580;28;20113;-38
2020/12/22 01:24:34;;;;;;;1.55;0.30;;;12.70;99.90;;;11.40;89.02;100508.59;4942228;28;20050;-38
2020/12/22 01:27:01;;;;;;;0.30;0.25;;;12.80;99.90;;;11.48;88.76;100518.41;4942589;28;20126;-38
2020/12/22 01:29:29;;;;;;;0.28;0.20;;;12.90;99.90;;;11.53;88.58;100518.56;4926750;28;20059;-38
2020/12/22 01:31:57;;;;;;;0.47;0.30;;;12.90;99.90;;;11.58;88.30;100523.38;4958389;28;20050;-38
2020/12/22 01:34:24;;;;;;;;;;;13.00;99.90;;;11.59;88.62;100517.66;4942447;28;20464;-38
2020/12/22 01:36:51;;;;;;;0.50;0.30;;;13.00;99.90;;;11.58;88.54;100510.53;4942455;28;20348;-38
2020/12/22 01:39:19;;;;;;;0.30;0.30;;;13.00;99.90;;;11.62;88.50;100516.38;4926486;28;20137;-38
2020/12/22 01:41:46;;;;;;;1.48;0.40;;;13.10;99.90;;;11.65;88.40;100502.25;4942219;28;20059;-38
2020/12/22 01:44:17;;;;;;;0.45;0.30;;;13.10;99.90;;;11.63;88.60;100497.00;4926263;28;20521;-38
2020/12/22 01:46:49;;;;;;;1.35;0.30;;;13.10;99.90;;;11.67;88.64;100511.06;4957994;28;20521;-38
2020/12/22 01:49:27;;;;;;;1.42;0.60;;;13.10;99.90;;;11.71;88.18;100517.72;4942452;28;20102;-38
2020/12/22 01:51:58;;;;;;;0.88;0.30;;;13.10;99.90;;;11.77;87.95;100505.06;4942160;28;20525;-38
2020/12/22 01:54:28;;;;;;;1.40;0.47;;;13.20;99.90;;;11.79;87.76;100509.22;4957432;28;20070;-38
2020/12/22 01:56:55;;;;;;;0.70;0.25;;;13.30;99.90;;;11.86;87.50;100511.06;4973793;28;20051;-38
2020/12/22 01:59:25;;;;;;;1.10;0.30;;;13.30;99.90;;;11.83;87.42;100504.16;4926492;28;20047;-38
2020/12/22 02:01:54;;;;;;;0.45;0.35;;;13.30;99.90;;;11.83;87.74;100506.88;4942025;28;20472;-38
2020/12/22 02:04:22;;;;;;;0.93;0.40;;;13.30;99.90;;;11.83;87.30;100517.00;4941327;28;20066;-38
2020/12/22 02:06:49;;;;;;;0.75;0.32;;;13.30;99.90;;;11.84;87.46;100514.00;4941872;28;20050;-38
2020/12/22 02:09:17;;;;;;;2.03;0.43;;;13.30;99.90;;;11.84;87.25;100522.22;4957770;28;20113;-38
2020/12/22 02:11:44;;;;;;;1.67;0.40;;;13.30;99.90;;;11.96;86.91;100497.69;4973650;28;20051;-38
2020/12/22 02:14:12;;;;;;;2.10;0.50;;;13.40;99.90;;;11.99;86.63;100518.25;4925513;28;20039;-37
2020/12/22 02:16:40;;;;;;;1.30;0.40;;;13.40;99.90;;;11.99;86.88;100523.75;4941643;28;20043;-38
2020/12/22 02:19:23;;;;;;;1.00;0.60;;;13.50;99.90;;;11.99;87.31;100523.75;4945088;28;20050;-38
2020/12/22 02:21:50;;;;;;;1.10;0.30;;;13.50;99.90;;;11.95;87.26;100504.22;4973285;28;20050;-38
2020/12/22 02:24:19;;;;;;;1.13;0.40;;;13.40;99.90;;;11.98;87.16;100514.69;4973237;28;20074;-38
2020/12/22 02:26:46;;;;;;;;;;;13.50;99.90;;;11.98;87.22;100498.28;4942027;28;20043;-38
2020/12/22 02:29:15;;;;;;;1.05;0.40;;;13.40;99.90;;;11.99;87.04;100512.81;4957247;28;19922;-38
2020/12/22 02:31:43;;;;;;;0.70;0.50;;;13.40;99.90;;;11.92;87.41;100502.75;4924622;28;20067;-38
2020/12/22 02:34:10;;;;;;;2.60;0.80;;;13.40;99.90;;;11.99;87.15;100508.16;4957163;28;20043;-38
2020/12/22 02:36:39;;;;;;;;;;;13.50;99.90;;;12.01;86.87;100505.22;4957980;28;20093;-38
2020/12/22 02:39:07;;;;;;;0.70;0.50;;;13.40;99.90;;;12.01;86.90;100508.78;4973050;28;19922;-38
2020/12/22 02:41:35;;;;;;;0.88;0.50;;;13.50;99.90;;;12.03;86.70;100516.78;4925467;28;20066;-38
2020/12/22 02:44:03;;;;;;;1.10;0.50;;;13.50;99.90;;;12.05;86.93;100528.31;4956743;28;20054;-38
2020/12/22 02:46:31;;;;;;;2.05;0.60;;;13.50;99.90;;;12.12;86.69;100509.09;4972882;28;20565;-38
2020/12/22 02:48:58;;;;;;;1.05;0.45;;;13.50;99.90;;;12.14;86.56;100512.44;4973068;28;20047;-38
2020/12/22 02:51:26;;;;;;;1.60;0.40;;;13.60;99.90;;;12.14;86.53;100515.97;4957078;28;20442;-38
2020/12/22 02:53:53;;;;;;;1.73;0.63;;;13.60;99.90;;;12.11;86.63;100508.25;4940736;28;20039;-38
2020/12/22 02:56:20;;;;;;;0.63;0.40;;;13.60;99.90;;;12.13;86.58;100517.06;4925061;28;20532;-38
2020/12/22 02:58:50;;;;;;;2.57;0.60;;;13.60;99.90;;;12.08;86.83;100497.78;4940919;28;20089;-38
2020/12/22 03:01:19;;;;;;;0.68;0.28;;;13.50;99.90;;;12.10;86.87;100512.03;4957174;28;20433;-38
2020/12/22 03:03:47;;;;;;;1.08;0.45;;;13.50;99.90;;;12.10;87.06;100500.28;4940239;28;20050;-38
2020/12/22 03:06:14;;;;;;;;;;;13.60;99.90;;;12.13;86.55;100513.50;4925741;28;20043;-38
2020/12/22 03:08:42;;;;;;;1.83;0.55;;;13.60;99.90;;;12.13;86.65;100511.56;4940513;28;19966;-38
2020/12/22 03:11:09;;;;;;;1.48;0.50;;;13.60;99.90;;;12.11;86.88;100516.44;4956675;28;20065;-38
2020/12/22 03:13:37;;;;;;;3.28;0.70;;;13.60;99.90;;;12.14;86.73;100505.03;4956363;28;20061;-38
2020/12/22 03:16:04;;;;;;;1.63;0.50;;;13.60;99.90;;;12.15;86.57;100512.19;4925031;28;20126;-38
2020/12/22 03:18:32;;;;;;;0.85;0.82;;;13.60;99.90;;;12.19;86.63;100516.13;4940508;28;20055;-38
2020/12/22 03:20:59;;;;;;;1.45;0.60;;;13.60;99.90;;;12.22;86.47;100504.75;4956326;28;20051;-38
2020/12/22 03:23:27;;;;;;;3.72;0.55;;;13.70;99.90;;;12.29;85.92;100512.03;4956087;28;20042;-37
2020/12/22 03:25:54;;;;;;;1.52;0.40;;;13.70;99.90;;;12.30;85.79;100521.88;4940365;28;20134;-38
2020/12/22 03:28:22;;;;;;;1.70;0.40;;;13.80;99.90;;;12.31;85.54;100518.91;4924725;28;20046;-38
2020/12/22 03:30:49;;;;;;;1.70;0.40;;;13.80;99.90;;;12.36;85.38;100521.81;4956239;28;20053;-38
2020/12/22 03:33:17;;;;;;;0.60;0.40;;;13.80;99.90;;;12.36;85.44;100520.97;4940377;28;20134;-38
2020/12/22 03:35:44;;;;;;;1.92;0.40;;;13.80;99.90;;;12.36;85.29;100518.22;4924539;28;20480;-38
2020/12/22 03:38:12;;;;;;;2.40;0.52;;;13.80;99.90;;;12.34;85.59;100513.00;4924662;28;20074;-38
2020/12/22 03:40:39;;;;;;;2.67;0.50;;;13.80;99.90;;;12.36;85.45;100521.81;4924561;28;20054;-38
2020/12/22 03:43:07;;;;;;;1.25;0.50;;;13.80;99.90;;;12.41;85.34;100529.28;4955647;28;20532;-38
2020/12/22 03:45:36;;;;;;;1.83;0.40;;;13.80;99.90;;;12.41;85.36;100531.22;4939910;28;20473;-38
2020/12/22 03:48:04;;;;;;;1.52;0.40;;;13.90;99.90;;;12.47;85.03;100533.88;4941105;28;20057;-38
2020/12/22 03:50:32;;;;;;;0.82;0.40;;;13.90;99.90;;;12.49;84.73;100525.41;4940256;28;20048;-38
2020/12/22 03:53:01;;;;;;;5.00;0.50;;;13.90;99.90;;;12.44;85.14;100534.31;4924113;28;20093;-38
2020/12/22 03:55:29;;;;;;;1.50;0.52;;;13.90;99.90;;;12.46;84.99;100545.03;4955596;28;20062;-38
2020/12/22 03:57:56;;;;;;;1.33;0.40;;;13.90;99.90;;;12.47;84.78;100528.38;4939830;28;20035;-38
2020/12/22 04:00:23;;;;;;;0.85;0.40;;;13.90;99.90;;;12.48;84.88;100530.06;4956041;28;20042;-38
2020/12/22 04:02:51;;;;;;;1.85;0.65;;;13.90;99.90;;;12.47;84.80;100531.13;4956003;28;20085;-38
2020/12/22 04:05:18;;;;;;;0.60;0.40;;;13.90;99.90;;;12.46;84.79;100528.59;4939793;28;20142;-38
2020/12/22 04:07:46;;;;;;;0.63;0.50;;;13.90;99.90;;;12.44;85.10;100520.63;4939963;28;20109;-38
2020/12/22 04:10:13;;;;;;;0.73;0.35;;;13.90;99.90;;;12.45;85.01;100522.28;4955940;28;20473;-37
2020/12/22 04:12:41;;;;;;;2.28;0.32;;;13.90;99.90;;;12.46;85.03;100536.81;4955901;28;20047;-38
2020/12/22 04:15:08;;;;;;;1.02;0.40;;;13.90;99.90;;;12.41;85.13;100523.81;4923790;28;20074;-38
2020/12/22 04:17:41;;;;;;;1.10;0.30;;;13.90;99.90;;;12.38;85.48;100532.50;4956060;28;20454;-38
2020/12/22 04:20:08;;;;;;;0.63;0.40;;;13.90;99.90;;;12.40;85.29;100538.56;4971709;28;20050;-38
2020/12/22 04:22:35;;;;;;;1.73;0.47;;;13.80;99.90;;;12.36;85.17;100534.63;4939827;28;20057;-38
2020/12/22 04:25:05;;;;;;;1.35;0.45;;;13.80;99.90;;;12.34;85.28;100528.56;4939581;28;20557;-38
2020/12/22 04:27:32;;;;;;;0.22;0.22;;;13.80;99.90;;;12.28;85.28;100535.78;4939459;28;20614;-38
2020/12/22 04:30:00;;;;;;;1.15;0.40;;;13.80;99.90;;;12.32;85.61;100534.25;4955276;28;20050;-38
2020/12/22 04:32:27;;;;;;;2.75;0.40;;;13.80;99.90;;;12.28;85.68;100524.84;4939668;28;20049;-38
2020/12/22 04:34:55;;;;;;;1.27;0.40;;;13.80;99.90;;;12.27;85.71;100534.13;4955129;28;20043;-38
2020/12/22 04:37:22;;;;;;;0.73;0.40;;;13.70;99.90;;;12.24;85.97;100564.66;4971732;28;20105;-38
2020/12/22 04:39:50;;;;;;;0.83;0.40;;;13.70;99.90;;;12.20;86.02;100553.38;4923810;28;20034;-38
2020/12/22 04:42:21;;;;;;;0.37;0.27;;;13.70;99.90;;;12.20;86.28;100555.25;4955621;28;20564;-38
2020/12/22 04:44:50;;;;;;;2.08;0.30;;;13.70;99.90;;;12.18;86.59;100558.22;5047921;23;20085;-41
2020/12/22 04:47:18;;;;;;;3.25;0.40;;;13.60;99.90;;;12.20;86.78;100566.19;4982763;28;20101;-40
2020/12/22 04:49:53;;;;;;;0.93;0.40;;;13.70;99.90;;;12.22;86.81;100567.66;4974932;28;20038;-41
2020/12/22 04:52:23;;;;;;;1.05;0.20;;;13.70;99.90;;;12.21;86.87;100563.25;4958510;28;20047;-41
2020/12/22 04:54:51;;;;;;;1.23;0.38;;;13.70;99.90;;;12.21;86.69;100567.88;4975579;28;20556;-41
2020/12/22 04:57:19;;;;;;;;;;;13.70;99.90;;;12.18;86.58;100568.31;4946698;28;20038;-41
2020/12/22 04:59:48;;;;;;;0.60;0.30;;;13.60;99.90;;;12.23;86.41;100571.19;4946074;28;19956;-41
2020/12/22 05:02:16;;;;;;;0.50;0.30;;;13.70;99.90;;;12.20;86.67;100577.13;4962644;28;20433;-41
2020/12/22 05:04:43;;;;;;;;;;;13.70;99.90;;;12.25;86.19;100585.47;4930514;28;20046;-41
2020/12/22 05:07:11;;;;;;;0.50;0.30;;;13.70;99.90;;;12.25;86.47;100582.75;4945977;28;19926;-41
2020/12/22 05:09:38;;;;;;;0.65;0.30;;;13.70;99.90;;;12.26;86.19;100583.59;4930707;28;20046;-40
2020/12/22 05:12:06;;;;;;;0.32;0.13;;;13.70;99.90;;;12.29;86.31;100592.16;4961783;28;20050;-41
2020/12/22 05:14:33;;;;;;;1.25;0.20;;;13.70;99.90;;;12.29;86.46;100594.06;4961468;28;20042;-41
2020/12/22 05:17:00;;;;;;;0.30;0.20;;;13.70;99.90;;;12.29;86.64;100600.38;4946384;28;20057;-41
2020/12/22 05:19:34;;;;;;;1.53;0.30;;;13.70;99.90;;;12.31;86.55;100598.22;4945939;28;20469;-41
2020/12/22 05:22:06;;;;;;;0.60;0.22;;;13.80;99.90;;;12.30;86.85;100593.00;4977633;28;20503;-41
2020/12/22 05:24:36;;;;;;;0.30;0.20;;;13.80;99.90;;;12.30;87.31;100601.22;4946257;28;20416;-41
2020/12/22 05:27:07;;;;;;;0.30;0.20;;;13.70;99.90;;;12.28;87.72;100603.34;4962062;28;20468;-41
2020/12/22 05:29:36;;;;;;;0.73;0.20;;;13.70;99.90;;;12.29;87.58;100599.53;4993740;28;20042;-41
2020/12/22 05:32:04;;;;;;;0.40;0.30;;;13.70;99.90;;;12.29;87.62;100596.81;4961518;28;20046;-41
2020/12/22 05:34:32;;;;;;;0.73;0.17;;;13.70;99.90;;;12.34;87.45;100611.47;4961075;28;20432;-41
2020/12/22 05:37:00;;;;;;;0.45;0.20;;;13.80;99.90;;;12.34;87.40;100605.16;4977593;28;20170;-41
2020/12/22 05:39:27;;;;;;;;;;;13.80;99.90;;;12.37;87.21;100601.97;4930613;28;20515;-41
2020/12/22 05:41:55;;;;;;;0.80;0.30;;;13.80;99.90;;;12.39;86.92;100602.56;4961379;28;19957;-40
2020/12/22 05:44:26;;;;;;;0.32;0.13;;;13.80;99.90;;;12.41;86.61;100616.03;4913692;28;20390;-41
2020/12/22 05:46:59;;;;;;;0.52;0.50;;;13.80;99.90;;;12.42;86.73;100609.47;4977194;28;20055;-41
2020/12/22 05:49:26;;;;;;;0.20;0.20;;;13.90;99.90;;;12.41;86.93;100616.03;4961323;28;20524;-40
2020/12/22 05:51:56;;;;;;;0.87;0.37;;;13.80;99.90;;;12.39;86.98;100618.97;4977076;28;20050;-41
2020/12/22 05:54:25;;;;;;;0.30;0.30;;;13.90;99.90;;;12.39;87.17;100618.16;4961303;28;20398;-41
2020/12/22 05:57:06;;;;;;;0.22;0.20;;;13.80;99.90;;;12.37;87.25;100627.44;4945666;28;20049;-41
2020/12/22 05:59:33;;;;;;;0.38;0.25;;;13.90;99.90;;;12.34;87.32;100614.22;4976993;28;20089;-41
2020/12/22 06:02:00;;;;;;;0.85;0.43;;;13.80;99.90;;;12.33;87.57;100628.09;4945311;28;20042;-41
2020/12/22 06:04:30;;;;;;;1.17;0.20;;;13.80;99.90;;;12.36;87.34;100635.84;4976600;28;20078;-40
2020/12/22 06:06:58;;;;;;;0.32;0.22;;;13.80;99.90;;;12.35;87.21;100639.66;4976902;28;20051;-41
2020/12/22 06:09:26;;;;;;;2.45;0.25;;;13.80;99.90;;;12.40;87.22;100639.78;4961419;28;20050;-41
2020/12/22 06:12:00;;;;;;;;;;;13.80;99.90;;;12.41;87.40;100637.91;4977122;28;20050;-41
2020/12/22 06:14:32;;;;;;;1.75;0.30;;;13.80;99.90;;;12.37;87.75;100643.84;4976687;28;20447;-40
2020/12/22 06:17:11;;;;;;;0.90;0.30;;;13.80;99.90;;;12.36;87.70;100657.75;4977139;28;20042;-41
2020/12/22 06:19:42;;;;;;;0.40;0.30;;;13.80;99.90;;;12.39;87.67;100656.47;4960712;28;20069;-40
2020/12/22 06:22:14;;;;;;;1.98;0.30;;;13.80;99.90;;;12.38;87.42;100652.88;4976806;28;20071;-41
2020/12/22 06:24:44;;;;;;;0.30;0.20;;;13.80;99.90;;;12.36;87.59;100657.75;4960345;28;20466;-40
2020/12/22 06:27:13;;;;;;;1.85;0.20;;;13.80;99.90;;;12.39;86.93;100659.19;4993832;28;20505;-41
2020/12/22 06:29:44;;;;;;;0.55;0.30;;;13.80;99.90;;;12.44;86.42;100668.38;4944554;28;20532;-40
2020/12/22 06:32:24;;;;;;;0.52;0.20;;;13.90;99.90;;;12.46;86.37;100670.88;4961301;28;20125;-41
2020/12/22 06:35:20;;;;;;;1.08;0.15;;;13.90;99.90;;;12.54;86.04;100669.75;4976615;28;20132;-41
2020/12/22 06:37:47;;;;;;;0.98;0.32;;;13.90;99.90;;;12.51;85.75;100666.41;4993962;28;20070;-40
2020/12/22 06:40:14;;;;;;;0.93;0.40;;;13.90;99.90;;;12.52;86.25;100662.59;4944550;28;20039;-40
2020/12/22 06:42:43;;;;;;;0.57;0.35;;;14.00;99.90;;;12.50;86.82;100672.94;4960361;28;20046;-41
2020/12/22 06:45:30;;;;;;;0.43;0.38;;;14.00;99.90;;;12.46;86.96;100674.44;4959889;28;20066;-41
2020/12/22 06:48:00;;;;;;;0.82;0.47;;;13.90;99.90;;;12.40;87.06;100672.63;4993637;28;20054;-41
2020/12/22 06:50:39;;;;;;;0.40;0.30;;;13.90;99.90;;;12.38;86.95;100674.75;4960455;28;20390;-41
2020/12/22 06:53:41;;;;;;;1.00;0.43;;;13.80;99.90;;;12.38;86.49;100674.75;4993420;28;20319;-41
2020/12/22 06:56:08;;;;;;;0.40;0.40;;;13.80;99.90;;;12.44;85.64;100670.28;4980925;28;20038;-41
2020/12/22 06:58:47;;;;;;;2.93;0.47;;;13.90;99.90;;;12.44;85.45;100670.28;4944168;28;20073;-40
2020/12/22 07:01:26;;;;;;;0.70;0.47;;;13.90;99.90;;;12.50;84.82;100685.78;4960064;28;20042;-41
2020/12/22 07:04:14;;;;;;;2.47;0.57;;;13.90;99.90;;;12.57;85.37;100691.19;4993040;28;20050;-41
2020/12/22 07:06:56;;;;;;;1.08;0.50;;;14.00;99.90;;;12.47;86.46;100692.56;4975771;28;20043;-41
2020/12/22 07:09:35;;;;;;;0.85;0.40;;;13.90;99.90;;;12.41;86.43;100692.63;4975608;28;20078;-41
2020/12/22 07:12:15;;;;;;;0.20;0.20;;;13.90;99.90;;;12.36;86.43;100696.88;4961208;28;20057;-40
2020/12/22 07:14:57;;;;;;;0.50;0.40;;;13.80;99.90;;;12.38;86.33;100688.44;4975231;28;20101;-40
2020/12/22 07:17:25;;;;;;;2.70;0.45;;;13.80;99.90;;;12.35;86.40;100700.69;4974941;28;20042;-41
2020/12/22 07:19:55;;;;;;;1.73;0.52;;;13.80;99.90;;;12.35;86.33;100708.91;4959524;28;20592;-41
2020/12/22 07:22:34;;;;;;;0.47;0.35;;;13.80;99.90;;;12.32;86.23;100708.50;4977189;28;20049;-41
2020/12/22 07:25:05;;;;;;;0.70;0.50;;;13.80;99.90;;;12.33;86.16;100723.84;4959717;28;20043;-41
2020/12/22 07:27:33;;;;;;;0.40;0.32;;;13.80;99.90;;;12.31;85.85;100718.59;4975404;28;20125;-41
2020/12/22 07:30:00;;;;;;;0.40;0.30;;;13.80;99.90;;;12.30;85.70;100718.84;4959776;28;20077;-41
2020/12/22 07:32:27;;;;;;;0.60;0.43;;;13.70;99.90;;;12.27;85.64;100720.13;4975628;28;20042;-41
2020/12/22 07:34:55;;;;;;;0.87;0.57;;;13.80;99.90;;;12.29;85.08;100722.63;4959354;28;20121;-41
2020/12/22 07:37:22;;;;;;;1.23;0.40;;;13.80;99.90;;;12.22;84.95;100722.69;4927744;28;20165;-40
2020/12/22 07:39:49;;;;;;;0.45;0.40;;;13.70;99.90;;;12.21;84.99;100742.91;4943203;28;20539;-40
2020/12/22 07:42:19;;;;;;;0.38;0.30;;;13.70;99.90;;;12.11;85.18;100728.91;4943639;28;20054;-41
2020/12/22 07:44:48;;;;;;;1.83;0.50;;;13.60;99.90;;;12.12;85.33;100736.06;4975040;28;20096;-40
2020/12/22 07:47:15;;;;;;;2.65;0.40;;;13.60;99.90;;;12.16;84.41;100748.22;4975363;28;20117;-41
2020/12/22 07:49:43;;;;;;;0.73;0.40;;;13.60;99.90;;;12.19;83.90;100751.31;4959250;28;20113;-40
2020/12/22 07:52:21;;;;;;;1.25;0.40;;;13.60;99.90;;;12.26;83.76;100755.91;4959820;28;20108;-40
2020/12/22 07:54:58;;;;;;;1.35;0.40;;;13.70;99.90;;;12.24;83.81;100758.84;4975080;28;20065;-41
2020/12/22 07:57:26;;;;;;;0.40;0.22;;;13.70;99.90;;;12.30;83.54;100762.59;4975340;28;20428;-41
2020/12/22 08:00:04;;;;;;;0.50;0.30;;;13.70;99.90;;;12.34;83.44;100769.28;4943189;28;20092;-40
2020/12/22 08:02:32;;;;;;;;;;;13.80;99.90;;;12.43;82.78;100767.09;4976564;28;20050;-41
2020/12/22 08:05:19;;;;;;;1.10;0.40;;;13.90;99.90;;;12.43;82.66;100781.59;4958986;28;20311;-41
2020/12/22 08:07:52;;;;;;;1.25;0.57;;;13.90;99.90;;;12.48;82.39;100780.94;4992414;28;20066;-41
2020/12/22 08:10:19;;;;;;;0.80;0.30;;;13.90;99.90;;;12.46;82.59;100783.88;4958556;28;20046;-41
2020/12/22 08:12:53;;;;;;;1.45;0.50;;;13.90;99.90;;;12.43;82.79;100773.41;4958936;28;20054;-41
2020/12/22 08:15:22;;;;;;;1.17;0.50;;;13.90;99.90;;;12.40;82.90;100784.78;4975151;28;20051;-41
2020/12/22 08:17:56;;;;;;;0.75;0.40;;;13.90;99.90;;;12.41;83.04;100788.38;4992252;28;20046;-41
2020/12/22 08:20:24;;;;;;;1.63;0.55;;;13.80;99.90;;;12.41;83.11;100791.13;4992055;28;20453;-41
2020/12/22 08:22:51;;;;;;;1.05;0.50;;;13.80;99.90;;;12.40;83.17;100800.38;4974926;28;20046;-41
2020/12/22 08:25:18;;;;;;;1.73;0.45;;;13.90;99.90;;;12.34;83.42;100808.44;4958354;28;20137;-41
2020/12/22 08:27:45;;;;;;;1.10;0.60;;;13.80;99.90;;;12.35;83.67;100809.25;4943023;28;20047;-41
2020/12/22 08:30:23;;;;;;;1.75;0.60;;;13.80;99.90;;;12.32;83.85;100824.22;4962907;28;20464;-41
2020/12/22 08:32:54;;;;;;;2.90;0.70;;;13.80;99.90;;;12.33;83.75;100827.81;4978489;28;20050;-40
2020/12/22 08:35:24;;;;;;;1.52;0.50;;;13.80;99.90;;;12.35;83.72;100834.75;4962722;28;20062;-41
2020/12/22 08:37:51;;;;;;;3.15;0.60;;;13.80;99.90;;;12.38;83.32;100838.91;4978474;28;20043;-41
2020/12/22 08:40:30;;;;;;;0.80;0.50;;;13.80;99.90;;;12.40;83.20;100847.72;4962630;28;20046;-41
2020/12/22 08:42:58;;;;;;;2.25;0.60;;;13.80;99.90;;;12.40;82.89;100835.97;4978270;28;20461;-41
2020/12/22 08:45:28;;;;;;;1.40;0.50;;;13.80;99.90;;;12.47;82.51;100840.31;4995528;28;20077;-41
2020/12/22 08:47:55;;;;;;;0.47;0.25;;;13.90;99.90;;;12.49;82.21;100846.41;4931988;28;20069;-41
2020/12/22 08:50:23;;;;;;;1.13;0.55;;;13.90;99.90;;;12.53;81.63;100852.22;4947099;28;20129;-41
2020/12/22 08:52:50;;;;;;;1.30;0.40;;;13.90;99.90;;;12.54;81.62;100856.66;4962232;28;20129;-41
2020/12/22 08:55:17;;;;;;;2.95;0.70;;;14.00;99.90;;;12.55;81.40;100858.31;4946141;28;20141;-41
2020/12/22 08:57:44;;;;;;;1.60;0.57;;;14.00;99.90;;;12.57;80.90;100858.09;4946342;28;20038;-41
2020/12/22 09:00:15;;;;;;;2.65;0.55;;;14.00;99.90;;;12.61;80.77;100862.06;4962373;28;20038;-41
2020/12/22 09:02:51;;;;;;;0.93;0.30;;;14.00;99.90;;;12.62;81.04;100870.06;4962274;28;20061;-41
2020/12/22 09:05:19;;;;;;;2.13;0.40;;;14.00;99.90;;;12.59;80.92;100855.97;4978084;28;20069;-41
2020/12/22 09:07:59;;;;;;;1.10;0.32;;;14.00;99.90;;;12.66;80.02;100870.44;4947285;28;20398;-41
2020/12/22 09:10:27;;;;;;;0.55;0.30;;;14.10;99.90;;;12.70;80.06;100870.81;4994842;28;20066;-41
2020/12/22 09:12:54;;;;;;;1.03;0.43;;;14.10;99.90;;;12.69;80.47;100877.38;4962382;28;20122;-41
2020/12/22 09:15:21;;;;;;;0.80;0.30;;;14.10;99.90;;;12.69;80.62;100886.41;4961665;28;20460;-41
2020/12/22 09:17:48;;;;;;;1.75;0.40;;;14.10;99.90;;;12.68;81.29;100887.47;4978062;28;20501;-41
2020/12/22 09:20:24;;;;;;;0.52;0.30;;;14.10;99.90;;;12.67;81.57;100894.00;4961705;28;20133;-41
2020/12/22 09:23:04;;;;;;;1.00;0.45;;;14.10;99.90;;;12.63;82.40;100904.56;4995018;28;20050;-41
2020/12/22 09:25:31;;;;;;;1.48;0.30;;;14.10;99.90;;;12.56;84.57;100901.03;4995056;28;20054;-40
2020/12/22 09:27:58;;;;;;;1.23;0.50;;;14.10;99.90;;;12.45;85.55;100913.56;4945762;28;20504;-40
2020/12/22 09:30:25;;;;;;;1.45;0.40;;;13.90;99.90;;;12.39;86.02;100919.91;4977881;28;20050;-40
2020/12/22 09:32:52;;;;;;;1.35;0.60;;;13.90;99.90;;;12.38;86.57;100912.78;4977645;28;20053;-40
2020/12/22 09:35:19;;;;;;;0.68;0.52;;;13.80;99.90;;;12.40;86.83;100924.34;4961123;28;20126;-41
2020/12/22 09:37:46;;;;;;;2.03;0.68;;;13.80;99.90;;;12.40;86.51;100929.81;4961384;28;20050;-41
2020/12/22 09:40:13;;;;;;;1.13;0.63;;;13.80;99.90;;;12.39;86.88;100935.50;4976883;28;20043;-41
2020/12/22 09:42:40;;;;;;;0.77;0.60;;;13.90;99.90;;;12.39;86.49;100930.03;4945554;28;20042;-41
2020/12/22 09:45:07;;;;;;;1.45;0.43;;;13.80;99.90;;;12.43;85.56;100943.03;4945201;28;20124;-40
2020/12/22 09:47:34;;;;;;;1.00;0.65;;;13.90;99.90;;;12.45;85.66;100932.69;4961385;28;20038;-41
2020/12/22 09:50:02;;;;;;;1.17;0.53;;;13.80;99.90;;;12.50;85.33;100932.91;4994855;28;20046;-40
2020/12/22 09:52:29;;;;;;;1.23;0.50;;;13.90;99.90;;;12.56;84.89;100935.81;4961454;28;20489;-40
2020/12/22 09:54:56;;;;;;;0.73;0.47;;;13.90;99.90;;;12.64;83.89;100938.25;4976712;28;20125;-41
2020/12/22 09:57:23;;;;;;;0.47;0.30;;;14.00;99.90;;;12.61;83.62;100925.88;4961301;28;20501;-41
2020/12/22 09:59:50;;;;;;;0.82;0.40;;;14.00;99.90;;;12.62;83.84;100937.63;4961163;28;20673;-41
2020/12/22 10:02:17;;;;;;;1.00;0.50;;;14.00;99.90;;;12.70;83.49;100942.81;4976809;28;20054;-40
2020/12/22 10:04:45;;;;;;;0.30;0.30;;;14.00;99.90;;;12.75;82.19;100945.75;4945372;28;20065;-40
2020/12/22 10:07:12;;;;;;;0.88;0.30;;;14.10;99.90;;;12.78;82.01;100950.78;4961052;28;20121;-41
2020/12/22 10:09:39;;;;;;;1.37;0.30;;;14.20;99.90;;;12.82;81.27;100948.41;4961189;28;20050;-41
2020/12/22 10:12:06;;;;;;;0.45;0.30;;;14.20;99.90;;;12.83;82.06;100950.06;4976627;28;20112;-41
2020/12/22 10:14:33;;;;;;;1.00;0.40;;;14.20;99.90;;;12.87;80.29;100945.84;4961007;28;20134;-40
2020/12/22 10:17:02;;;;;;;1.48;0.30;;;14.30;99.90;;;12.91;80.19;100954.44;4994274;28;20121;-41
2020/12/22 10:19:29;;;;;;;0.75;0.40;;;14.30;99.90;;;12.98;79.85;100941.50;4960802;28;20066;-41
2020/12/22 10:21:56;;;;;;;0.67;0.40;;;14.40;99.90;;;13.02;79.65;100947.38;4976856;28;20050;-41
2020/12/22 10:24:35;;;;;;;0.57;0.20;;;14.40;99.90;;;13.08;79.52;100954.69;4978176;28;20413;-41